sensor_id;sensor_type;location;lat;lon;timestamp;pressure;altitude;pressure_sealevel;temperature;humidity
63339;BME280;47485;51.378;-1.342;2023-04-07T00:02:04;100531.05;;;5.93;33.77
63339;BME280;47485;51.378;-1.342;2023-04-07T00:04:31;100533.66;;;5.82;33.10
63339;BME280;47485;51.378;-1.342;2023-04-07T00:06:58;100536.87;;;5.04;34.39
63339;BME280;47485;51.378;-1.342;2023-04-07T00:09:25;100539.00;;;5.34;35.57
63339;BME280;47485;51.378;-1.342;2023-04-07T00:11:51;100547.86;;;4.70;35.80
63339;BME280;47485;51.378;-1.342;2023-04-07T00:14:18;100546.95;;;5.76;35.21
63339;BME280;47485;51.378;-1.342;2023-04-07T00:16:45;100550.49;;;5.02;34.32
63339;BME280;47485;51.378;-1.342;2023-04-07T00:19:12;100551.14;;;5.66;33.42
63339;BME280;47485;51.378;-1.342;2023-04-07T00:21:39;100551.34;;;5.03;34.23
63339;BME280;47485;51.378;-1.342;2023-04-07T00:24:05;100554.45;;;4.92;35.29
63339;BME280;47485;51.378;-1.342;2023-04-07T00:26:32;100556.19;;;4.01;35.74
63339;BME280;47485;51.378;-1.342;2023-04-07T00:28:59;100558.64;;;3.51;36.30
63339;BME280;47485;51.378;-1.342;2023-04-07T00:31:26;100549.32;;;4.88;35.49
63339;BME280;47485;51.378;-1.342;2023-04-07T00:33:53;100548.69;;;4.89;35.06
63339;BME280;47485;51.378;-1.342;2023-04-07T00:36:20;100551.71;;;3.07;36.51
63339;BME280;47485;51.378;-1.342;2023-04-07T00:38:46;100556.18;;;3.17;36.98
63339;BME280;47485;51.378;-1.342;2023-04-07T00:41:13;100560.59;;;2.60;37.56
63339;BME280;47485;51.378;-1.342;2023-04-07T00:43:40;100558.13;;;3.56;36.69
63339;BME280;47485;51.378;-1.342;2023-04-07T00:46:07;100555.25;;;3.62;35.55
63339;BME280;47485;51.378;-1.342;2023-04-07T00:48:33;100548.79;;;4.84;35.25
63339;BME280;47485;51.378;-1.342;2023-04-07T00:51:02;100546.56;;;4.57;34.58
63339;BME280;47485;51.378;-1.342;2023-04-07T00:53:29;100543.31;;;6.75;33.12
63339;BME280;47485;51.378;-1.342;2023-04-07T00:55:56;100550.17;;;5.81;31.93
63339;BME280;47485;51.378;-1.342;2023-04-07T00:58:23;100552.04;;;7.39;30.94
63339;BME280;47485;51.378;-1.342;2023-04-07T01:00:54;100553.78;;;6.72;31.97
63339;BME280;47485;51.378;-1.342;2023-04-07T01:03:29;100553.58;;;5.37;33.20
63339;BME280;47485;51.378;-1.342;2023-04-07T01:06:00;100555.02;;;5.75;33.40
63339;BME280;47485;51.378;-1.342;2023-04-07T01:08:31;100554.14;;;6.49;32.77
63339;BME280;47485;51.378;-1.342;2023-04-07T01:11:03;100545.55;;;5.80;32.44
63339;BME280;47485;51.378;-1.342;2023-04-07T01:13:36;100544.46;;;7.15;31.75
63339;BME280;47485;51.378;-1.342;2023-04-07T01:16:10;100542.69;;;6.40;31.85
63339;BME280;47485;51.378;-1.342;2023-04-07T01:18:39;100538.75;;;6.01;31.89
63339;BME280;47485;51.378;-1.342;2023-04-07T01:21:10;100543.30;;;7.32;31.58
63339;BME280;47485;51.378;-1.342;2023-04-07T01:23:52;100547.72;;;6.74;31.36
63339;BME280;47485;51.378;-1.342;2023-04-07T01:26:29;100547.63;;;5.86;30.74
63339;BME280;47485;51.378;-1.342;2023-04-07T01:29:37;100547.26;;;6.26;30.56
63339;BME280;47485;51.378;-1.342;2023-04-07T01:32:06;100547.28;;;5.82;30.58
63339;BME280;47485;51.378;-1.342;2023-04-07T01:34:36;100547.12;;;6.99;30.23
63339;BME280;47485;51.378;-1.342;2023-04-07T01:37:04;100546.83;;;5.95;30.18
63339;BME280;47485;51.378;-1.342;2023-04-07T01:39:32;100541.68;;;6.22;30.31
63339;BME280;47485;51.378;-1.342;2023-04-07T01:42:02;100540.84;;;5.94;30.53
63339;BME280;47485;51.378;-1.342;2023-04-07T01:44:31;100537.83;;;6.44;31.23
63339;BME280;47485;51.378;-1.342;2023-04-07T01:46:59;100540.05;;;5.53;31.31
63339;BME280;47485;51.378;-1.342;2023-04-07T01:49:27;100541.03;;;5.75;30.98
63339;BME280;47485;51.378;-1.342;2023-04-07T01:51:56;100540.37;;;6.20;30.55
63339;BME280;47485;51.378;-1.342;2023-04-07T01:54:24;100544.28;;;5.76;30.79
63339;BME280;47485;51.378;-1.342;2023-04-07T01:56:52;100544.75;;;6.09;30.92
63339;BME280;47485;51.378;-1.342;2023-04-07T01:59:19;100543.16;;;5.08;30.97
63339;BME280;47485;51.378;-1.342;2023-04-07T02:01:46;100542.57;;;6.22;31.41
63339;BME280;47485;51.378;-1.342;2023-04-07T02:04:18;100542.43;;;5.51;31.58
63339;BME280;47485;51.378;-1.342;2023-04-07T02:06:52;100544.23;;;4.71;31.59
63339;BME280;47485;51.378;-1.342;2023-04-07T02:09:21;100547.50;;;4.89;31.28
63339;BME280;47485;51.378;-1.342;2023-04-07T02:11:51;100544.79;;;7.02;29.74
63339;BME280;47485;51.378;-1.342;2023-04-07T02:14:20;100542.42;;;6.58;30.69
63339;BME280;47485;51.378;-1.342;2023-04-07T02:16:47;100545.08;;;6.46;31.12
63339;BME280;47485;51.378;-1.342;2023-04-07T02:19:14;100546.20;;;4.77;32.68
63339;BME280;47485;51.378;-1.342;2023-04-07T02:21:41;100545.78;;;6.06;32.54
63339;BME280;47485;51.378;-1.342;2023-04-07T02:24:10;100546.38;;;4.39;31.71
63339;BME280;47485;51.378;-1.342;2023-04-07T02:26:38;100548.50;;;5.21;31.78
63339;BME280;47485;51.378;-1.342;2023-04-07T02:29:05;100549.51;;;5.11;32.05
63339;BME280;47485;51.378;-1.342;2023-04-07T02:31:32;100544.68;;;6.99;30.93
63339;BME280;47485;51.378;-1.342;2023-04-07T02:33:58;100548.59;;;5.99;30.83
63339;BME280;47485;51.378;-1.342;2023-04-07T02:36:25;100551.24;;;5.48;30.46
63339;BME280;47485;51.378;-1.342;2023-04-07T02:38:52;100552.16;;;5.97;31.18
63339;BME280;47485;51.378;-1.342;2023-04-07T02:41:19;100551.97;;;6.08;31.01
63339;BME280;47485;51.378;-1.342;2023-04-07T02:43:46;100553.73;;;4.29;32.03
63339;BME280;47485;51.378;-1.342;2023-04-07T02:46:12;100553.63;;;4.73;32.29
63339;BME280;47485;51.378;-1.342;2023-04-07T02:48:39;100554.18;;;4.77;32.70
63339;BME280;47485;51.378;-1.342;2023-04-07T02:51:06;100552.22;;;5.41;32.07
63339;BME280;47485;51.378;-1.342;2023-04-07T02:53:33;100551.23;;;2.64;34.00
63339;BME280;47485;51.378;-1.342;2023-04-07T02:56:00;100553.14;;;4.27;35.38
63339;BME280;47485;51.378;-1.342;2023-04-07T02:58:26;100556.35;;;3.77;35.51
63339;BME280;47485;51.378;-1.342;2023-04-07T03:00:53;100557.22;;;2.21;35.37
63339;BME280;47485;51.378;-1.342;2023-04-07T03:03:20;100560.16;;;2.81;35.83
63339;BME280;47485;51.378;-1.342;2023-04-07T03:05:47;100559.20;;;3.11;36.73
63339;BME280;47485;51.378;-1.342;2023-04-07T03:08:14;100558.88;;;3.12;36.10
63339;BME280;47485;51.378;-1.342;2023-04-07T03:10:41;100562.03;;;2.90;36.42
63339;BME280;47485;51.378;-1.342;2023-04-07T03:13:07;100559.02;;;3.33;36.02
63339;BME280;47485;51.378;-1.342;2023-04-07T03:15:34;100559.22;;;2.94;36.42
63339;BME280;47485;51.378;-1.342;2023-04-07T03:18:01;100561.38;;;3.65;35.27
63339;BME280;47485;51.378;-1.342;2023-04-07T03:20:28;100559.27;;;2.50;35.26
63339;BME280;47485;51.378;-1.342;2023-04-07T03:22:55;100553.13;;;3.88;34.56
63339;BME280;47485;51.378;-1.342;2023-04-07T03:25:22;100550.46;;;3.92;33.64
63339;BME280;47485;51.378;-1.342;2023-04-07T03:27:49;100553.03;;;4.94;32.41
63339;BME280;47485;51.378;-1.342;2023-04-07T03:30:16;100551.17;;;4.00;31.41
63339;BME280;47485;51.378;-1.342;2023-04-07T03:32:43;100550.44;;;6.19;29.63
63339;BME280;47485;51.378;-1.342;2023-04-07T03:35:10;100553.08;;;7.26;29.88
63339;BME280;47485;51.378;-1.342;2023-04-07T03:37:38;100548.94;;;6.00;30.44
63339;BME280;47485;51.378;-1.342;2023-04-07T03:40:06;100550.36;;;3.43;31.62
63339;BME280;47485;51.378;-1.342;2023-04-07T03:42:33;100549.50;;;5.94;29.29
63339;BME280;47485;51.378;-1.342;2023-04-07T03:45:00;100550.59;;;7.36;29.07
63339;BME280;47485;51.378;-1.342;2023-04-07T03:47:27;100551.19;;;2.97;31.67
63339;BME280;47485;51.378;-1.342;2023-04-07T03:49:53;100545.53;;;3.55;30.35
63339;BME280;47485;51.378;-1.342;2023-04-07T03:52:20;100546.70;;;5.79;28.47
63339;BME280;47485;51.378;-1.342;2023-04-07T03:54:47;100544.19;;;7.82;27.35
63339;BME280;47485;51.378;-1.342;2023-04-07T03:57:14;100549.79;;;6.41;27.97
63339;BME280;47485;51.378;-1.342;2023-04-07T03:59:41;100554.51;;;7.26;28.44
63339;BME280;47485;51.378;-1.342;2023-04-07T04:02:08;100555.60;;;6.65;29.28
63339;BME280;47485;51.378;-1.342;2023-04-07T04:04:34;100558.61;;;5.54;30.72
63339;BME280;47485;51.378;-1.342;2023-04-07T04:07:01;100562.33;;;4.55;32.10
63339;BME280;47485;51.378;-1.342;2023-04-07T04:09:28;100570.49;;;4.81;32.56
63339;BME280;47485;51.378;-1.342;2023-04-07T04:11:55;100568.22;;;4.50;32.83
63339;BME280;47485;51.378;-1.342;2023-04-07T04:14:22;100568.70;;;4.44;33.68
63339;BME280;47485;51.378;-1.342;2023-04-07T04:16:49;100570.28;;;2.87;34.34
63339;BME280;47485;51.378;-1.342;2023-04-07T04:19:16;100569.53;;;3.72;35.05
63339;BME280;47485;51.378;-1.342;2023-04-07T04:21:42;100571.26;;;2.50;35.30
63339;BME280;47485;51.378;-1.342;2023-04-07T04:24:09;100571.98;;;4.10;35.22
63339;BME280;47485;51.378;-1.342;2023-04-07T04:26:37;100567.43;;;4.04;34.91
63339;BME280;47485;51.378;-1.342;2023-04-07T04:29:04;100565.90;;;2.91;34.48
63339;BME280;47485;51.378;-1.342;2023-04-07T04:31:30;100564.76;;;4.39;33.59
63339;BME280;47485;51.378;-1.342;2023-04-07T04:33:57;100567.88;;;5.24;33.70
63339;BME280;47485;51.378;-1.342;2023-04-07T04:36:25;100571.63;;;3.81;33.48
63339;BME280;47485;51.378;-1.342;2023-04-07T04:38:52;100577.40;;;2.31;34.89
63339;BME280;47485;51.378;-1.342;2023-04-07T04:41:19;100580.08;;;1.42;37.83
63339;BME280;47485;51.378;-1.342;2023-04-07T04:43:45;100585.30;;;0.59;39.12
63339;BME280;47485;51.378;-1.342;2023-04-07T04:46:12;100586.16;;;1.27;38.39
63339;BME280;47485;51.378;-1.342;2023-04-07T04:48:39;100589.14;;;2.71;37.04
63339;BME280;47485;51.378;-1.342;2023-04-07T04:51:07;100593.17;;;3.53;36.12
63339;BME280;47485;51.378;-1.342;2023-04-07T04:53:33;100592.13;;;2.85;35.76
63339;BME280;47485;51.378;-1.342;2023-04-07T04:56:00;100593.30;;;3.58;35.00
63339;BME280;47485;51.378;-1.342;2023-04-07T04:58:27;100591.63;;;4.15;34.40
63339;BME280;47485;51.378;-1.342;2023-04-07T05:00:54;100592.40;;;3.23;34.32
63339;BME280;47485;51.378;-1.342;2023-04-07T05:03:22;100593.09;;;4.53;31.89
63339;BME280;47485;51.378;-1.342;2023-04-07T05:05:48;100590.56;;;5.51;31.30
63339;BME280;47485;51.378;-1.342;2023-04-07T05:08:15;100593.13;;;5.65;31.07
63339;BME280;47485;51.378;-1.342;2023-04-07T05:10:42;100594.03;;;4.44;31.10
63339;BME280;47485;51.378;-1.342;2023-04-07T05:13:09;100596.63;;;4.46;31.92
63339;BME280;47485;51.378;-1.342;2023-04-07T05:15:36;100596.33;;;5.45;31.85
63339;BME280;47485;51.378;-1.342;2023-04-07T05:18:03;100594.47;;;3.40;33.18
63339;BME280;47485;51.378;-1.342;2023-04-07T05:20:30;100594.55;;;4.49;33.19
63339;BME280;47485;51.378;-1.342;2023-04-07T05:22:57;100596.59;;;4.26;33.31
63339;BME280;47485;51.378;-1.342;2023-04-07T05:25:24;100603.29;;;4.44;33.64
63339;BME280;47485;51.378;-1.342;2023-04-07T05:27:51;100603.11;;;3.30;33.36
63339;BME280;47485;51.378;-1.342;2023-04-07T05:30:18;100604.31;;;5.49;32.81
63339;BME280;47485;51.378;-1.342;2023-04-07T05:32:44;100605.15;;;4.60;32.69
63339;BME280;47485;51.378;-1.342;2023-04-07T05:35:11;100607.55;;;4.81;31.84
63339;BME280;47485;51.378;-1.342;2023-04-07T05:37:39;100609.82;;;3.92;30.93
63339;BME280;47485;51.378;-1.342;2023-04-07T05:40:07;100611.41;;;3.60;30.53
63339;BME280;47485;51.378;-1.342;2023-04-07T05:42:33;100611.53;;;6.56;28.21
63339;BME280;47485;51.378;-1.342;2023-04-07T05:45:00;100621.60;;;7.49;28.58
63339;BME280;47485;51.378;-1.342;2023-04-07T05:47:27;100633.01;;;4.53;30.76
63339;BME280;47485;51.378;-1.342;2023-04-07T05:49:54;100643.85;;;3.75;33.35
63339;BME280;47485;51.378;-1.342;2023-04-07T05:52:21;100646.47;;;2.07;35.25
63339;BME280;47485;51.378;-1.342;2023-04-07T05:54:48;100644.18;;;3.59;34.65
63339;BME280;47485;51.378;-1.342;2023-04-07T05:57:14;100641.76;;;4.14;32.81
63339;BME280;47485;51.378;-1.342;2023-04-07T05:59:41;100640.03;;;5.22;32.00
63339;BME280;47485;51.378;-1.342;2023-04-07T06:02:08;100644.36;;;3.21;32.95
63339;BME280;47485;51.378;-1.342;2023-04-07T06:04:35;100642.81;;;5.88;30.48
63339;BME280;47485;51.378;-1.342;2023-04-07T06:07:02;100644.22;;;5.59;29.10
63339;BME280;47485;51.378;-1.342;2023-04-07T06:09:30;100645.82;;;6.10;29.31
63339;BME280;47485;51.378;-1.342;2023-04-07T06:11:57;100647.54;;;5.05;30.77
63339;BME280;47485;51.378;-1.342;2023-04-07T06:14:24;100652.22;;;4.45;30.00
63339;BME280;47485;51.378;-1.342;2023-04-07T06:16:51;100654.75;;;7.40;28.39
63339;BME280;47485;51.378;-1.342;2023-04-07T06:19:18;100659.63;;;7.10;28.76
63339;BME280;47485;51.378;-1.342;2023-04-07T06:21:45;100664.67;;;5.79;30.30
63339;BME280;47485;51.378;-1.342;2023-04-07T06:24:12;100664.27;;;5.24;30.59
63339;BME280;47485;51.378;-1.342;2023-04-07T06:26:39;100669.61;;;6.73;30.33
63339;BME280;47485;51.378;-1.342;2023-04-07T06:29:06;100670.64;;;5.56;30.85
63339;BME280;47485;51.378;-1.342;2023-04-07T06:31:33;100673.77;;;5.45;31.43
63339;BME280;47485;51.378;-1.342;2023-04-07T06:34:00;100679.36;;;5.00;31.50
63339;BME280;47485;51.378;-1.342;2023-04-07T06:36:27;100678.66;;;5.65;30.09
63339;BME280;47485;51.378;-1.342;2023-04-07T06:38:54;100676.56;;;6.03;29.25
63339;BME280;47485;51.378;-1.342;2023-04-07T06:41:20;100674.46;;;7.44;29.34
63339;BME280;47485;51.378;-1.342;2023-04-07T06:43:48;100678.41;;;6.81;29.55
63339;BME280;47485;51.378;-1.342;2023-04-07T06:46:14;100682.11;;;6.00;29.90
63339;BME280;47485;51.378;-1.342;2023-04-07T06:48:41;100677.48;;;5.96;31.89
63339;BME280;47485;51.378;-1.342;2023-04-07T06:51:08;100681.40;;;4.91;32.78
63339;BME280;47485;51.378;-1.342;2023-04-07T06:53:35;100682.57;;;5.25;32.66
63339;BME280;47485;51.378;-1.342;2023-04-07T06:56:03;100687.26;;;4.70;32.43
63339;BME280;47485;51.378;-1.342;2023-04-07T06:58:30;100690.25;;;5.49;32.31
63339;BME280;47485;51.378;-1.342;2023-04-07T07:00:57;100694.64;;;4.57;33.64
63339;BME280;47485;51.378;-1.342;2023-04-07T07:03:23;100699.15;;;3.34;35.44
63339;BME280;47485;51.378;-1.342;2023-04-07T07:05:50;100698.37;;;1.91;37.69
63339;BME280;47485;51.378;-1.342;2023-04-07T07:08:17;100694.68;;;3.24;37.88
63339;BME280;47485;51.378;-1.342;2023-04-07T07:10:44;100696.80;;;3.60;36.27
63339;BME280;47485;51.378;-1.342;2023-04-07T07:13:11;100700.84;;;3.48;35.77
63339;BME280;47485;51.378;-1.342;2023-04-07T07:15:39;100707.42;;;2.50;35.85
63339;BME280;47485;51.378;-1.342;2023-04-07T07:18:05;100714.77;;;2.08;38.24
63339;BME280;47485;51.378;-1.342;2023-04-07T07:20:32;100716.37;;;1.91;38.82
63339;BME280;47485;51.378;-1.342;2023-04-07T07:22:59;100714.25;;;1.88;38.47
63339;BME280;47485;51.378;-1.342;2023-04-07T07:25:26;100711.72;;;2.32;36.87
63339;BME280;47485;51.378;-1.342;2023-04-07T07:27:53;100714.11;;;3.14;36.47
63339;BME280;47485;51.378;-1.342;2023-04-07T07:30:20;100718.15;;;3.08;37.88
63339;BME280;47485;51.378;-1.342;2023-04-07T07:32:48;100727.31;;;3.93;37.86
63339;BME280;47485;51.378;-1.342;2023-04-07T07:35:14;100729.66;;;3.37;37.28
63339;BME280;47485;51.378;-1.342;2023-04-07T07:37:41;100732.11;;;3.62;36.83
63339;BME280;47485;51.378;-1.342;2023-04-07T07:40:08;100733.84;;;2.14;37.27
63339;BME280;47485;51.378;-1.342;2023-04-07T07:42:35;100735.44;;;4.05;36.38
63339;BME280;47485;51.378;-1.342;2023-04-07T07:45:03;100737.89;;;3.62;36.01
63339;BME280;47485;51.378;-1.342;2023-04-07T07:47:31;100739.12;;;3.17;36.60
63339;BME280;47485;51.378;-1.342;2023-04-07T07:49:58;100736.13;;;3.76;35.90
63339;BME280;47485;51.378;-1.342;2023-04-07T07:52:25;100736.63;;;2.63;37.77
63339;BME280;47485;51.378;-1.342;2023-04-07T07:54:53;100729.72;;;4.11;35.72
63339;BME280;47485;51.378;-1.342;2023-04-07T07:57:19;100737.45;;;4.06;37.43
63339;BME280;47485;51.378;-1.342;2023-04-07T07:59:46;100736.64;;;3.94;36.54
63339;BME280;47485;51.378;-1.342;2023-04-07T08:02:13;100737.01;;;4.60;35.49
63339;BME280;47485;51.378;-1.342;2023-04-07T08:04:40;100742.58;;;3.44;36.24
63339;BME280;47485;51.378;-1.342;2023-04-07T08:07:07;100739.10;;;5.22;35.64
63339;BME280;47485;51.378;-1.342;2023-04-07T08:09:33;100744.31;;;4.14;36.75
63339;BME280;47485;51.378;-1.342;2023-04-07T08:12:00;100742.65;;;4.77;35.13
63339;BME280;47485;51.378;-1.342;2023-04-07T08:14:27;100740.83;;;3.30;35.33
63339;BME280;47485;51.378;-1.342;2023-04-07T08:16:54;100735.74;;;5.93;32.46
63339;BME280;47485;51.378;-1.342;2023-04-07T08:19:21;100739.48;;;5.81;32.85
63339;BME280;47485;51.378;-1.342;2023-04-07T08:21:48;100740.56;;;5.84;33.43
63339;BME280;47485;51.378;-1.342;2023-04-07T08:24:15;100749.27;;;3.60;35.62
63339;BME280;47485;51.378;-1.342;2023-04-07T08:26:41;100745.49;;;4.72;32.95
63339;BME280;47485;51.378;-1.342;2023-04-07T08:29:08;100748.78;;;4.36;34.46
63339;BME280;47485;51.378;-1.342;2023-04-07T08:31:35;100758.60;;;1.57;37.46
63339;BME280;47485;51.378;-1.342;2023-04-07T08:34:02;100750.56;;;5.68;34.55
63339;BME280;47485;51.378;-1.342;2023-04-07T08:36:29;100749.96;;;4.44;35.10
63339;BME280;47485;51.378;-1.342;2023-04-07T08:38:55;100753.22;;;4.39;35.72
63339;BME280;47485;51.378;-1.342;2023-04-07T08:41:26;100760.05;;;-0.27;39.07
63339;BME280;47485;51.378;-1.342;2023-04-07T08:43:56;100759.33;;;-0.23;37.54
63339;BME280;47485;51.378;-1.342;2023-04-07T08:46:24;100753.73;;;4.85;33.61
63339;BME280;47485;51.378;-1.342;2023-04-07T08:48:55;100751.99;;;6.93;31.80
63339;BME280;47485;51.378;-1.342;2023-04-07T08:51:26;100754.73;;;7.51;32.87
63339;BME280;47485;51.378;-1.342;2023-04-07T08:53:59;100751.43;;;5.84;32.74
63339;BME280;47485;51.378;-1.342;2023-04-07T08:56:28;100753.45;;;4.30;33.85
63339;BME280;47485;51.378;-1.342;2023-04-07T08:58:57;100752.21;;;4.23;33.12
63339;BME280;47485;51.378;-1.342;2023-04-07T09:01:26;100748.28;;;7.72;31.23
63339;BME280;47485;51.378;-1.342;2023-04-07T09:03:55;100744.10;;;6.70;30.51
63339;BME280;47485;51.378;-1.342;2023-04-07T09:06:23;100748.55;;;2.71;34.32
63339;BME280;47485;51.378;-1.342;2023-04-07T09:08:50;100746.77;;;8.40;31.18
63339;BME280;47485;51.378;-1.342;2023-04-07T09:11:17;100752.57;;;5.59;31.56
63339;BME280;47485;51.378;-1.342;2023-04-07T09:13:44;100748.69;;;7.18;31.36
63339;BME280;47485;51.378;-1.342;2023-04-07T09:16:11;100755.13;;;4.09;33.07
63339;BME280;47485;51.378;-1.342;2023-04-07T09:18:39;100752.94;;;6.45;31.25
63339;BME280;47485;51.378;-1.342;2023-04-07T09:21:08;100749.03;;;7.14;29.79
63339;BME280;47485;51.378;-1.342;2023-04-07T09:23:36;100752.85;;;7.72;31.32
63339;BME280;47485;51.378;-1.342;2023-04-07T09:26:19;100749.36;;;7.36;31.46
63339;BME280;47485;51.378;-1.342;2023-04-07T09:28:48;100748.46;;;5.76;30.97
63339;BME280;47485;51.378;-1.342;2023-04-07T09:31:16;100748.02;;;7.38;29.95
63339;BME280;47485;51.378;-1.342;2023-04-07T09:33:43;100746.34;;;4.71;31.97
63339;BME280;47485;51.378;-1.342;2023-04-07T09:36:09;100745.45;;;1.66;34.31
63339;BME280;47485;51.378;-1.342;2023-04-07T09:38:39;100744.06;;;7.05;30.22
63339;BME280;47485;51.378;-1.342;2023-04-07T09:41:08;100750.68;;;1.00;35.50
63339;BME280;47485;51.378;-1.342;2023-04-07T09:43:36;100744.21;;;3.29;33.15
63339;BME280;47485;51.378;-1.342;2023-04-07T09:46:12;100744.09;;;3.89;32.40
63339;BME280;47485;51.378;-1.342;2023-04-07T09:48:41;100742.41;;;3.51;32.81
63339;BME280;47485;51.378;-1.342;2023-04-07T09:51:10;100740.08;;;6.00;30.08
63339;BME280;47485;51.378;-1.342;2023-04-07T09:53:42;100739.49;;;8.52;28.91
63339;BME280;47485;51.378;-1.342;2023-04-07T09:56:09;100735.91;;;7.29;28.65
63339;BME280;47485;51.378;-1.342;2023-04-07T09:58:38;100733.87;;;7.17;28.55
63339;BME280;47485;51.378;-1.342;2023-04-07T10:01:06;100736.36;;;6.10;29.20
63339;BME280;47485;51.378;-1.342;2023-04-07T10:03:33;100743.62;;;1.57;33.44
63339;BME280;47485;51.378;-1.342;2023-04-07T10:06:01;100740.25;;;3.95;32.31
63339;BME280;47485;51.378;-1.342;2023-04-07T10:08:30;100737.57;;;6.14;29.63
63339;BME280;47485;51.378;-1.342;2023-04-07T10:10:58;100739.86;;;5.36;29.16
63339;BME280;47485;51.378;-1.342;2023-04-07T10:13:28;100737.29;;;7.19;28.89
63339;BME280;47485;51.378;-1.342;2023-04-07T10:15:55;100734.06;;;8.42;28.26
63339;BME280;47485;51.378;-1.342;2023-04-07T10:18:22;100733.11;;;7.25;28.89
63339;BME280;47485;51.378;-1.342;2023-04-07T10:20:51;100732.86;;;8.93;27.32
63339;BME280;47485;51.378;-1.342;2023-04-07T10:23:22;100733.14;;;9.51;26.59
63339;BME280;47485;51.378;-1.342;2023-04-07T10:25:52;100735.34;;;6.54;27.95
63339;BME280;47485;51.378;-1.342;2023-04-07T10:28:20;100733.15;;;5.80;29.62
63339;BME280;47485;51.378;-1.342;2023-04-07T10:30:50;100730.73;;;10.03;25.20
63339;BME280;47485;51.378;-1.342;2023-04-07T10:33:17;100731.45;;;10.10;25.36
63339;BME280;47485;51.378;-1.342;2023-04-07T10:36:16;100738.26;;;9.95;27.18
63339;BME280;47485;51.378;-1.342;2023-04-07T10:39:18;100738.36;;;8.01;27.38
63339;BME280;47485;51.378;-1.342;2023-04-07T10:41:45;100733.66;;;4.55;30.80
63339;BME280;47485;51.378;-1.342;2023-04-07T10:44:45;100737.52;;;6.67;30.59
63339;BME280;47485;51.378;-1.342;2023-04-07T10:47:12;100731.48;;;9.99;27.12
63339;BME280;47485;51.378;-1.342;2023-04-07T10:50:14;100730.86;;;9.56;27.83
63339;BME280;47485;51.378;-1.342;2023-04-07T10:52:41;100730.95;;;9.93;27.84
63339;BME280;47485;51.378;-1.342;2023-04-07T10:55:41;100732.12;;;7.32;28.32
63339;BME280;47485;51.378;-1.342;2023-04-07T10:58:18;100731.23;;;7.95;28.60
63339;BME280;47485;51.378;-1.342;2023-04-07T11:01:17;100729.40;;;6.40;29.18
63339;BME280;47485;51.378;-1.342;2023-04-07T11:03:54;100717.38;;;6.99;28.51
63339;BME280;47485;51.378;-1.342;2023-04-07T11:06:20;100716.24;;;10.83;25.59
63339;BME280;47485;51.378;-1.342;2023-04-07T11:08:48;100722.19;;;9.31;27.93
63339;BME280;47485;51.378;-1.342;2023-04-07T11:11:20;100726.69;;;7.11;29.62
63339;BME280;47485;51.378;-1.342;2023-04-07T11:14:00;100723.12;;;8.96;28.90
63339;BME280;47485;51.378;-1.342;2023-04-07T11:16:34;100728.28;;;6.91;30.97
63339;BME280;47485;51.378;-1.342;2023-04-07T11:19:02;100728.06;;;7.18;30.60
63339;BME280;47485;51.378;-1.342;2023-04-07T11:21:29;100725.47;;;7.97;29.29
63339;BME280;47485;51.378;-1.342;2023-04-07T11:23:55;100726.75;;;3.40;31.29
63339;BME280;47485;51.378;-1.342;2023-04-07T11:26:22;100720.90;;;9.20;28.66
63339;BME280;47485;51.378;-1.342;2023-04-07T11:28:50;100719.84;;;8.47;27.52
63339;BME280;47485;51.378;-1.342;2023-04-07T11:31:21;100727.46;;;5.39;29.24
63339;BME280;47485;51.378;-1.342;2023-04-07T11:33:51;100724.75;;;8.17;28.37
63339;BME280;47485;51.378;-1.342;2023-04-07T11:36:26;100724.40;;;8.10;28.13
63339;BME280;47485;51.378;-1.342;2023-04-07T11:38:52;100727.18;;;6.28;26.65
63339;BME280;47485;51.378;-1.342;2023-04-07T11:41:19;100729.09;;;4.24;29.08
63339;BME280;47485;51.378;-1.342;2023-04-07T11:43:46;100717.52;;;7.96;25.47
63339;BME280;47485;51.378;-1.342;2023-04-07T11:46:14;100723.72;;;5.10;25.71
63339;BME280;47485;51.378;-1.342;2023-04-07T11:48:43;100713.25;;;7.75;26.36
63339;BME280;47485;51.378;-1.342;2023-04-07T11:51:19;100705.58;;;10.69;22.91
63339;BME280;47485;51.378;-1.342;2023-04-07T11:53:46;100702.48;;;9.00;25.15
63339;BME280;47485;51.378;-1.342;2023-04-07T11:56:14;100701.16;;;11.30;23.60
63339;BME280;47485;51.378;-1.342;2023-04-07T11:58:46;100702.23;;;8.36;25.36
63339;BME280;47485;51.378;-1.342;2023-04-07T12:01:13;100702.15;;;5.06;24.92
63339;BME280;47485;51.378;-1.342;2023-04-07T12:03:54;100705.19;;;6.47;24.93
63339;BME280;47485;51.378;-1.342;2023-04-07T12:06:27;100703.00;;;8.34;25.42
63339;BME280;47485;51.378;-1.342;2023-04-07T12:08:54;100703.99;;;9.41;23.59
63339;BME280;47485;51.378;-1.342;2023-04-07T12:11:20;100698.88;;;11.03;21.84
63339;BME280;47485;51.378;-1.342;2023-04-07T12:13:47;100702.58;;;11.48;22.77
63339;BME280;47485;51.378;-1.342;2023-04-07T12:16:14;100703.89;;;12.29;23.37
63339;BME280;47485;51.378;-1.342;2023-04-07T12:18:41;100703.03;;;11.03;25.07
63339;BME280;47485;51.378;-1.342;2023-04-07T12:21:08;100701.75;;;11.16;26.00
63339;BME280;47485;51.378;-1.342;2023-04-07T12:23:34;100706.88;;;8.44;26.12
63339;BME280;47485;51.378;-1.342;2023-04-07T12:26:01;100703.69;;;8.51;25.98
63339;BME280;47485;51.378;-1.342;2023-04-07T12:28:28;100706.40;;;9.40;25.53
63339;BME280;47485;51.378;-1.342;2023-04-07T12:30:55;100705.97;;;4.68;25.84
63339;BME280;47485;51.378;-1.342;2023-04-07T12:33:21;100706.38;;;8.82;23.29
63339;BME280;47485;51.378;-1.342;2023-04-07T12:35:48;100703.56;;;10.60;23.61
63339;BME280;47485;51.378;-1.342;2023-04-07T12:38:15;100701.28;;;11.15;22.77
63339;BME280;47485;51.378;-1.342;2023-04-07T12:40:42;100698.10;;;11.99;21.98
63339;BME280;47485;51.378;-1.342;2023-04-07T12:43:08;100702.42;;;10.39;21.01
63339;BME280;47485;51.378;-1.342;2023-04-07T12:45:35;100702.21;;;11.60;20.88
63339;BME280;47485;51.378;-1.342;2023-04-07T12:48:02;100704.78;;;7.35;23.02
63339;BME280;47485;51.378;-1.342;2023-04-07T12:50:29;100704.42;;;10.79;22.82
63339;BME280;47485;51.378;-1.342;2023-04-07T12:52:56;100707.91;;;4.49;24.30
63339;BME280;47485;51.378;-1.342;2023-04-07T12:55:23;100701.98;;;9.29;22.23
63339;BME280;47485;51.378;-1.342;2023-04-07T12:57:50;100698.88;;;10.08;21.20